Six Mile, Illinois
Current Conditions -  °F | °C
As of 10:51 AM on Friday 19 Dec 2014 (Local Time) from KMWA Reporting Station
Overcast Overcast  
Wind Chill: 29°   Ceiling: 3600
Heat Index: 36°   Visibility: 10mi
Dew Point: 28°   Wind: 9mph
Humidity: 75%   Direction: 10°N
Pressure: 30.32"   Gusts: NA
Location:  37.9184°N, 89.092°W
Report Text: KMWA 191651Z 01008KT 10SM OVC036 02/M02 A3032
Loading
Personal Weather Stations






























Interactive Weather Map New forecast layout! Learn more

10-Day Weather Forecast

Advertisements
Track Severe Weather on mobile